AUT2281 SCEL-SABE
Flight info
| Callsign | AUT2281 |
|---|---|
| Flight time | N/A |
| Altitude | 33000 |
| Route | ALBAL7C ALBAL UM424 ASADA ASADA8Q |
| Aircraft | MD88/M-SDFGIRWY/C |
Departure
| Time | 2026-04-30 18:39 |
|---|---|
| Airport | Comodoro Arturo Merino Benítez International Airport (SCEL) |
Arrival
| Time | N/A |
|---|---|
| Airport | Aeroparque Jorge Newbery (SABE) |
| Time | Latitude | Longitude | Altitude | Speed | Heading |
|---|---|---|---|---|---|
| 2026-04-30 17:58 | -33.40221 | -70.79595 | 1578 ft | 0 kts | 180° |
| 2026-04-30 18:20 | -33.40218 | -70.79595 | 1577 ft | 1 kts | 180° |
| 2026-04-30 18:21 | -33.40203 | -70.79595 | 1577 ft | 2 kts | 180° |
| 2026-04-30 18:21 | -33.40188 | -70.79595 | 1577 ft | 2 kts | 180° |
| 2026-04-30 18:21 | -33.40173 | -70.79595 | 1577 ft | 2 kts | 180° |
| 2026-04-30 18:21 | -33.40158 | -70.79595 | 1577 ft | 2 kts | 180° |
| 2026-04-30 18:22 | -33.40143 | -70.79594 | 1577 ft | 2 kts | 180° |
| 2026-04-30 18:22 | -33.40136 | -70.79595 | 1577 ft | 3 kts | 218° |
| 2026-04-30 18:22 | -33.40150 | -70.79621 | 1577 ft | 3 kts | 258° |
| 2026-04-30 18:23 | -33.40151 | -70.79632 | 1576 ft | 0 kts | 267° |
| 2026-04-30 18:28 | -33.40151 | -70.79636 | 1576 ft | 1 kts | 268° |
| 2026-04-30 18:28 | -33.40155 | -70.79740 | 1575 ft | 10 kts | 265° |
| 2026-04-30 18:29 | -33.40160 | -70.79833 | 1574 ft | 10 kts | 265° |
| 2026-04-30 18:29 | -33.40106 | -70.80009 | 1573 ft | 9 kts | 354° |
| 2026-04-30 18:30 | -33.39965 | -70.80018 | 1572 ft | 10 kts | 358° |
| 2026-04-30 18:30 | -33.39793 | -70.80026 | 1572 ft | 14 kts | 358° |
| 2026-04-30 18:31 | -33.39685 | -70.80033 | 1571 ft | 16 kts | 357° |
| 2026-04-30 18:31 | -33.39431 | -70.80047 | 1570 ft | 19 kts | 358° |
| 2026-04-30 18:32 | -33.39134 | -70.80063 | 1570 ft | 22 kts | 357° |
| 2026-04-30 18:32 | -33.38980 | -70.80071 | 1570 ft | 21 kts | 358° |
| 2026-04-30 18:32 | -33.38735 | -70.80084 | 1570 ft | 14 kts | 358° |
| 2026-04-30 18:33 | -33.38633 | -70.80090 | 1570 ft | 14 kts | 359° |
| 2026-04-30 18:33 | -33.38448 | -70.80100 | 1570 ft | 12 kts | 357° |
| 2026-04-30 18:33 | -33.38362 | -70.80105 | 1570 ft | 12 kts | 358° |
| 2026-04-30 18:34 | -33.38272 | -70.80109 | 1570 ft | 13 kts | 358° |
| 2026-04-30 18:34 | -33.38088 | -70.80119 | 1569 ft | 13 kts | 358° |
| 2026-04-30 18:34 | -33.37994 | -70.80124 | 1569 ft | 13 kts | 358° |
| 2026-04-30 18:35 | -33.37898 | -70.80129 | 1569 ft | 13 kts | 358° |
| 2026-04-30 18:35 | -33.37801 | -70.80135 | 1569 ft | 14 kts | 357° |
| 2026-04-30 18:35 | -33.37701 | -70.80141 | 1568 ft | 14 kts | 356° |
| 2026-04-30 18:36 | -33.37495 | -70.80151 | 1568 ft | 14 kts | 356° |
| 2026-04-30 18:36 | -33.37391 | -70.80156 | 1568 ft | 14 kts | 358° |
| 2026-04-30 18:36 | -33.37191 | -70.80167 | 1568 ft | 12 kts | 354° |
| 2026-04-30 18:37 | -33.37124 | -70.80203 | 1568 ft | 9 kts | 314° |
| 2026-04-30 18:37 | -33.37116 | -70.80214 | 1568 ft | 0 kts | 301° |
| 2026-04-30 18:38 | -33.37111 | -70.80227 | 1568 ft | 5 kts | 290° |
| 2026-04-30 18:38 | -33.37110 | -70.80306 | 1568 ft | 12 kts | 252° |
| 2026-04-30 18:38 | -33.37190 | -70.80371 | 1568 ft | 19 kts | 182° |
| 2026-04-30 18:39 | -33.37464 | -70.80357 | 1568 ft | 72 kts | 176° |
| 2026-04-30 18:39 | -33.38224 | -70.80317 | 1569 ft | 143 kts | 177° |
| 2026-04-30 18:39 | -33.39344 | -70.80254 | 1977 ft | 166 kts | 179° |
| 2026-04-30 18:39 | -33.40474 | -70.80213 | 2816 ft | 166 kts | 180° |
| 2026-04-30 18:40 | -33.41653 | -70.80167 | 3202 ft | 178 kts | 178° |
| 2026-04-30 18:40 | -33.43013 | -70.80098 | 3201 ft | 216 kts | 177° |
| 2026-04-30 18:40 | -33.44645 | -70.80007 | 3296 ft | 250 kts | 178° |
| 2026-04-30 18:40 | -33.46476 | -70.79906 | 3740 ft | 266 kts | 178° |
| 2026-04-30 18:41 | -33.48307 | -70.79803 | 4487 ft | 270 kts | 177° |
| 2026-04-30 18:41 | -33.50209 | -70.79695 | 5232 ft | 274 kts | 177° |
| 2026-04-30 18:41 | -33.52134 | -70.79587 | 5917 ft | 279 kts | 177° |
| 2026-04-30 18:41 | -33.54073 | -70.79449 | 6542 ft | 283 kts | 173° |
| 2026-04-30 18:42 | -33.56054 | -70.79198 | 7167 ft | 289 kts | 174° |
| 2026-04-30 18:42 | -33.60119 | -70.78695 | 8361 ft | 301 kts | 174° |
| 2026-04-30 18:42 | -33.62188 | -70.78442 | 8895 ft | 304 kts | 174° |
| 2026-04-30 18:45 | -33.84991 | -70.72061 | 13121 ft | 374 kts | 117° |
| 2026-04-30 18:45 | -33.85991 | -70.69179 | 13657 ft | 376 kts | 109° |
| 2026-04-30 18:45 | -33.86946 | -70.66254 | 14093 ft | 378 kts | 110° |
| 2026-04-30 18:46 | -33.87936 | -70.63332 | 14608 ft | 382 kts | 111° |
| 2026-04-30 18:46 | -33.88965 | -70.60377 | 15004 ft | 386 kts | 111° |
| 2026-04-30 18:46 | -33.90024 | -70.57403 | 15429 ft | 391 kts | 112° |
| 2026-04-30 18:46 | -33.91124 | -70.54365 | 15870 ft | 394 kts | 113° |
| 2026-04-30 18:47 | -33.92232 | -70.51352 | 16307 ft | 398 kts | 113° |
| 2026-04-30 18:47 | -33.93355 | -70.48329 | 16741 ft | 400 kts | 114° |
| 2026-04-30 18:47 | -33.94520 | -70.45259 | 17139 ft | 405 kts | 114° |
| 2026-04-30 18:47 | -33.95694 | -70.42150 | 17580 ft | 408 kts | 114° |
| 2026-04-30 18:48 | -33.96861 | -70.39047 | 18001 ft | 411 kts | 114° |
| 2026-04-30 18:48 | -33.98042 | -70.35896 | 18361 ft | 417 kts | 114° |
| 2026-04-30 18:48 | -33.99236 | -70.32707 | 18846 ft | 418 kts | 114° |
| 2026-04-30 18:48 | -34.00441 | -70.29492 | 19144 ft | 425 kts | 113° |
| 2026-04-30 18:49 | -34.01649 | -70.26257 | 19556 ft | 427 kts | 114° |
| 2026-04-30 18:49 | -34.02880 | -70.22968 | 19881 ft | 431 kts | 114° |
| 2026-04-30 18:49 | -34.04102 | -70.19691 | 20234 ft | 434 kts | 114° |
| 2026-04-30 18:49 | -34.05345 | -70.16374 | 20561 ft | 437 kts | 113° |
| 2026-04-30 18:50 | -34.06607 | -70.12994 | 20844 ft | 443 kts | 114° |
| 2026-04-30 18:50 | -34.07870 | -70.09617 | 21329 ft | 441 kts | 114° |
| 2026-04-30 18:50 | -34.09127 | -70.06256 | 21501 ft | 449 kts | 114° |
| 2026-04-30 18:50 | -34.10410 | -70.02824 | 21891 ft | 450 kts | 114° |
| 2026-04-30 18:51 | -34.11707 | -69.99374 | 22164 ft | 454 kts | 114° |
| 2026-04-30 18:51 | -34.13006 | -69.95901 | 22525 ft | 455 kts | 114° |
| 2026-04-30 18:51 | -34.14328 | -69.92378 | 22734 ft | 461 kts | 114° |
| 2026-04-30 18:51 | -34.15635 | -69.88891 | 23161 ft | 459 kts | 115° |
| 2026-04-30 18:52 | -34.16970 | -69.85348 | 23371 ft | 464 kts | 115° |
| 2026-04-30 18:52 | -34.18200 | -69.81735 | 23744 ft | 464 kts | 108° |
| 2026-04-30 18:52 | -34.19014 | -69.78024 | 24006 ft | 465 kts | 99° |
| 2026-04-30 18:52 | -34.19520 | -69.74144 | 24314 ft | 466 kts | 97° |
| 2026-04-30 18:53 | -34.20006 | -69.70297 | 24525 ft | 470 kts | 97° |
| 2026-04-30 18:53 | -34.20508 | -69.66423 | 24956 ft | 468 kts | 97° |
| 2026-04-30 18:53 | -34.21009 | -69.62535 | 25238 ft | 470 kts | 97° |
| 2026-04-30 18:53 | -34.21526 | -69.58612 | 25557 ft | 471 kts | 97° |
| 2026-04-30 18:54 | -34.22036 | -69.54720 | 25750 ft | 475 kts | 98° |
| 2026-04-30 18:54 | -34.22561 | -69.50786 | 26113 ft | 475 kts | 98° |
| 2026-04-30 18:54 | -34.23089 | -69.46832 | 26208 ft | 480 kts | 97° |
| 2026-04-30 18:54 | -34.23615 | -69.42886 | 26608 ft | 479 kts | 98° |
| 2026-04-30 18:55 | -34.24145 | -69.38933 | 26835 ft | 480 kts | 98° |
| 2026-04-30 18:55 | -34.25225 | -69.30917 | 27209 ft | 486 kts | 97° |
| 2026-04-30 18:55 | -34.25764 | -69.26938 | 27595 ft | 484 kts | 97° |
| 2026-04-30 18:56 | -34.26859 | -69.18923 | 28309 ft | 480 kts | 97° |
| 2026-04-30 18:56 | -34.27395 | -69.14964 | 28499 ft | 482 kts | 97° |
| 2026-04-30 18:56 | -34.27936 | -69.11014 | 28893 ft | 479 kts | 98° |
| 2026-04-30 18:57 | -34.29024 | -69.03065 | 29351 ft | 480 kts | 97° |
| 2026-04-30 18:57 | -34.29534 | -68.99140 | 29742 ft | 477 kts | 97° |
| 2026-04-30 18:57 | -34.30042 | -68.95179 | 30024 ft | 477 kts | 97° |
| 2026-04-30 18:58 | -34.31041 | -68.87284 | 30558 ft | 476 kts | 96° |
| 2026-04-30 18:58 | -34.31534 | -68.83354 | 30869 ft | 475 kts | 96° |
| 2026-04-30 18:58 | -34.32027 | -68.79406 | 31080 ft | 475 kts | 97° |
| 2026-04-30 18:59 | -34.33013 | -68.71538 | 31644 ft | 474 kts | 96° |
| 2026-04-30 19:00 | -34.34493 | -68.59761 | 32428 ft | 472 kts | 97° |
| 2026-04-30 19:00 | -34.34989 | -68.55827 | 32661 ft | 472 kts | 97° |
| 2026-04-30 19:00 | -34.35980 | -68.47980 | 32986 ft | 474 kts | 97° |
| 2026-04-30 19:01 | -34.36995 | -68.39984 | 32961 ft | 485 kts | 97° |
| 2026-04-30 19:02 | -34.38570 | -68.27649 | 32939 ft | 499 kts | 97° |
| 2026-04-30 19:03 | -34.40715 | -68.11041 | 32937 ft | 495 kts | 97° |
| 2026-04-30 19:04 | -34.42770 | -67.94612 | 32917 ft | 496 kts | 97° |
| 2026-04-30 19:05 | -34.44779 | -67.78011 | 32912 ft | 496 kts | 96° |
| 2026-04-30 19:06 | -34.46677 | -67.61462 | 32916 ft | 496 kts | 96° |
| 2026-04-30 19:06 | -34.48089 | -67.49022 | 32920 ft | 498 kts | 96° |
| 2026-04-30 19:07 | -34.49506 | -67.36623 | 32928 ft | 499 kts | 96° |
| 2026-04-30 19:08 | -34.51424 | -67.19968 | 32912 ft | 499 kts | 96° |
| 2026-04-30 19:09 | -34.52803 | -67.07487 | 32903 ft | 499 kts | 95° |
| 2026-04-30 19:09 | -34.53684 | -66.99192 | 32904 ft | 500 kts | 95° |
| 2026-04-30 19:10 | -34.55448 | -66.82523 | 32909 ft | 501 kts | 95° |